createdAt,value
2017-08-27T00:01:29.395Z,33.70
2017-08-27T00:03:56.957Z,36.47
2017-08-27T00:06:25.315Z,36.30
2017-08-27T00:08:52.905Z,33.73
2017-08-27T00:11:20.507Z,37.83
2017-08-27T00:13:48.096Z,34.50
2017-08-27T00:16:15.678Z,35.70
2017-08-27T00:18:43.244Z,28.90
2017-08-27T00:21:10.814Z,33.27
2017-08-27T00:23:39.166Z,34.80
2017-08-27T00:26:06.725Z,32.17
2017-08-27T00:28:34.300Z,32.63
2017-08-27T00:31:01.921Z,35.90
2017-08-27T00:33:29.469Z,33.33
2017-08-27T00:35:57.056Z,34.60
2017-08-27T00:38:24.634Z,35.53
2017-08-27T00:40:52.241Z,35.60
2017-08-27T00:43:20.235Z,32.97
2017-08-27T00:45:47.856Z,36.57
2017-08-27T00:48:15.439Z,35.67
2017-08-27T00:50:43.021Z,34.67
2017-08-27T00:53:10.595Z,36.70
2017-08-27T00:55:38.198Z,30.70
2017-08-27T00:58:06.557Z,32.93
2017-08-27T01:00:34.157Z,36.40
2017-08-27T01:03:02.169Z,31.93
2017-08-27T01:05:29.733Z,30.73
2017-08-27T01:07:57.939Z,35.60
2017-08-27T01:10:25.593Z,32.60
2017-08-27T01:12:53.386Z,36.27
2017-08-27T01:15:20.968Z,31.43
2017-08-27T01:17:48.570Z,33.37
2017-08-27T01:20:16.171Z,31.10
2017-08-27T01:22:43.738Z,30.13
2017-08-27T01:25:11.313Z,31.07
2017-08-27T01:27:38.903Z,33.70
2017-08-27T01:30:06.812Z,32.50
2017-08-27T01:32:34.413Z,33.40
2017-08-27T01:35:02.009Z,36.80
2017-08-27T01:37:29.585Z,34.77
2017-08-27T01:39:57.960Z,39.90
2017-08-27T01:42:25.519Z,31.20
2017-08-27T01:44:53.124Z,32.50
2017-08-27T01:47:20.690Z,30.80
2017-08-27T01:49:48.290Z,38.00
2017-08-27T01:52:15.850Z,32.83
2017-08-27T01:54:43.414Z,36.53
2017-08-27T01:57:11.010Z,36.00
2017-08-27T01:59:38.574Z,37.93
2017-08-27T02:02:06.139Z,38.90
2017-08-27T02:04:33.701Z,35.80
2017-08-27T02:07:01.271Z,41.10
2017-08-27T02:09:28.867Z,37.57
2017-08-27T02:11:56.458Z,43.00
2017-08-27T02:14:24.027Z,40.90
2017-08-27T02:16:51.594Z,41.73
2017-08-27T02:19:19.940Z,38.90
2017-08-27T02:21:47.507Z,45.90
2017-08-27T02:24:15.065Z,43.73
2017-08-27T02:26:42.661Z,49.50
2017-08-27T02:29:10.229Z,51.37
2017-08-27T02:31:37.830Z,46.07
2017-08-27T02:34:05.409Z,48.17
2017-08-27T02:36:32.983Z,47.33
2017-08-27T02:39:00.572Z,53.70
2017-08-27T02:41:28.257Z,51.50
2017-08-27T02:43:55.834Z,52.73
2017-08-27T02:46:23.399Z,53.67
2017-08-27T02:48:51.005Z,56.00
2017-08-27T02:51:18.560Z,57.50
2017-08-27T02:53:46.927Z,59.27
2017-08-27T02:56:14.474Z,58.47
2017-08-27T02:58:42.061Z,60.63
2017-08-27T03:01:10.406Z,53.83
2017-08-27T03:03:37.985Z,54.33
2017-08-27T03:06:05.546Z,57.27
2017-08-27T03:08:33.928Z,55.27
2017-08-27T03:11:01.504Z,58.93
2017-08-27T03:13:29.099Z,65.83
2017-08-27T03:15:56.706Z,63.93
2017-08-27T03:18:25.265Z,59.70
2017-08-27T03:20:52.887Z,65.17
2017-08-27T03:23:20.490Z,62.50
2017-08-27T03:25:48.066Z,59.20
2017-08-27T03:28:15.718Z,60.00
2017-08-27T03:30:43.279Z,57.17
2017-08-27T03:33:10.860Z,59.80
2017-08-27T03:35:38.621Z,50.80
2017-08-27T03:38:06.173Z,53.43
2017-08-27T03:40:33.733Z,52.73
2017-08-27T03:43:01.323Z,65.67
2017-08-27T03:45:29.654Z,54.70
2017-08-27T03:47:57.269Z,55.93
2017-08-27T03:50:24.867Z,56.03
2017-08-27T03:52:52.437Z,59.47
2017-08-27T03:55:20.049Z,62.27
2017-08-27T03:57:47.613Z,64.53
2017-08-27T04:00:15.182Z,63.93
2017-08-27T04:02:42.777Z,58.27
2017-08-27T04:05:10.363Z,65.80
2017-08-27T04:07:37.979Z,71.47
2017-08-27T04:10:05.567Z,66.90
2017-08-27T04:12:33.145Z,65.10
2017-08-27T04:15:00.706Z,65.10
2017-08-27T04:17:28.353Z,70.30
2017-08-27T04:19:55.943Z,67.23
2017-08-27T04:22:23.498Z,71.00
2017-08-27T04:24:51.066Z,63.57
2017-08-27T04:27:18.697Z,67.90
2017-08-27T04:29:46.279Z,68.50
2017-08-27T04:32:13.855Z,75.90
2017-08-27T04:34:41.413Z,69.77
2017-08-27T04:37:09.795Z,74.60
2017-08-27T04:39:37.392Z,70.17
2017-08-27T04:42:05.003Z,74.60
2017-08-27T04:44:32.567Z,67.40
2017-08-27T04:47:00.146Z,72.13
2017-08-27T04:49:27.719Z,67.13
2017-08-27T04:51:55.279Z,67.27
2017-08-27T04:54:22.960Z,68.20
2017-08-27T04:56:50.518Z,69.23
2017-08-27T04:59:18.094Z,68.60
2017-08-27T05:01:45.649Z,63.53
2017-08-27T05:04:13.227Z,66.77
2017-08-27T05:06:40.793Z,67.33
2017-08-27T05:09:08.369Z,63.23
2017-08-27T05:11:35.954Z,63.70
2017-08-27T05:14:03.522Z,67.10
2017-08-27T05:16:31.106Z,65.03
2017-08-27T05:18:58.681Z,65.83
2017-08-27T05:21:26.245Z,63.43
2017-08-27T05:23:53.834Z,62.07
2017-08-27T05:26:21.402Z,59.47
2017-08-27T05:28:48.961Z,65.47
2017-08-27T05:31:16.530Z,63.90
2017-08-27T05:33:44.094Z,58.13
2017-08-27T05:36:11.681Z,63.80
2017-08-27T05:38:39.240Z,58.37
2017-08-27T05:41:06.833Z,58.93
2017-08-27T05:43:34.465Z,64.80
2017-08-27T05:46:02.069Z,57.67
2017-08-27T05:48:29.620Z,59.17
2017-08-27T05:50:57.193Z,59.10
2017-08-27T05:53:24.765Z,60.73
2017-08-27T05:55:52.346Z,50.70
2017-08-27T05:58:19.939Z,48.40
2017-08-27T06:00:47.507Z,50.87
2017-08-27T06:03:15.093Z,51.13
2017-08-27T06:05:42.783Z,49.60
2017-08-27T06:08:10.352Z,54.77
2017-08-27T06:10:37.947Z,54.97
2017-08-27T06:13:05.505Z,51.10
2017-08-27T06:15:33.125Z,50.90
2017-08-27T06:18:00.689Z,52.33
2017-08-27T06:20:28.341Z,48.67
2017-08-27T06:22:55.919Z,56.27
2017-08-27T06:25:23.485Z,45.80
2017-08-27T06:27:51.076Z,53.20
2017-08-27T06:30:18.647Z,42.33
2017-08-27T06:32:46.361Z,49.40
2017-08-27T06:35:13.936Z,44.73
2017-08-27T06:37:41.533Z,41.30
2017-08-27T06:40:09.091Z,44.83
2017-08-27T06:42:36.729Z,43.73
2017-08-27T06:45:04.326Z,43.20
2017-08-27T06:47:31.889Z,46.43
2017-08-27T06:49:59.486Z,45.53
2017-08-27T06:52:27.053Z,44.30
2017-08-27T06:54:54.621Z,45.97
2017-08-27T06:57:22.325Z,43.57
2017-08-27T06:59:49.922Z,47.00
2017-08-27T07:02:17.476Z,44.03
2017-08-27T07:04:45.054Z,42.87
2017-08-27T07:07:13.362Z,38.20
2017-08-27T07:09:41.721Z,40.43
2017-08-27T07:12:09.320Z,34.90
2017-08-27T07:14:36.989Z,38.47
2017-08-27T07:17:04.551Z,38.87
2017-08-27T07:19:32.137Z,41.33
2017-08-27T07:21:59.734Z,41.93
2017-08-27T07:24:27.310Z,43.37
2017-08-27T07:26:54.870Z,45.13
2017-08-27T07:29:22.630Z,39.40
2017-08-27T07:31:50.241Z,45.27
2017-08-27T07:34:17.845Z,37.63
2017-08-27T07:36:45.414Z,33.70
2017-08-27T07:39:13.009Z,30.97
2017-08-27T07:41:40.662Z,32.67
2017-08-27T07:44:08.240Z,31.50
2017-08-27T07:46:35.821Z,24.83
2017-08-27T07:49:03.436Z,25.57
2017-08-27T07:51:31.055Z,27.03
2017-08-27T07:53:58.626Z,24.43
2017-08-27T07:56:26.189Z,23.17
2017-08-27T07:58:53.767Z,21.60
2017-08-27T08:01:21.306Z,23.43
2017-08-27T08:03:48.864Z,23.63
2017-08-27T08:06:16.513Z,20.27
2017-08-27T08:08:44.091Z,22.73
2017-08-27T08:11:11.666Z,22.47
2017-08-27T08:13:39.247Z,15.80
2017-08-27T08:16:07.604Z,18.93
2017-08-27T08:18:35.971Z,17.70
2017-08-27T08:21:03.593Z,17.50
2017-08-27T08:23:31.232Z,14.13
2017-08-27T08:25:58.812Z,14.27
2017-08-27T08:28:26.423Z,14.77
2017-08-27T08:30:54.278Z,12.33
2017-08-27T08:33:21.859Z,21.13
2017-08-27T08:35:49.423Z,20.60
2017-08-27T08:38:17.787Z,17.50
2017-08-27T08:40:45.369Z,18.67
2017-08-27T08:43:13.001Z,17.70
2017-08-27T08:45:40.586Z,18.13
2017-08-27T08:48:08.937Z,16.73
2017-08-27T08:50:36.524Z,20.03
2017-08-27T08:53:04.119Z,17.00
2017-08-27T08:55:31.686Z,15.90
2017-08-27T08:57:59.276Z,15.90
2017-08-27T09:00:26.885Z,18.00
2017-08-27T09:02:55.243Z,12.13
2017-08-27T09:05:22.813Z,13.77
2017-08-27T09:07:51.184Z,9.30
2017-08-27T09:10:18.953Z,12.43
2017-08-27T09:12:46.557Z,13.73
2017-08-27T09:15:14.151Z,6.33
2017-08-27T09:17:41.715Z,8.73
2017-08-27T09:20:09.286Z,6.30
2017-08-27T09:22:36.887Z,6.30
2017-08-27T09:25:04.471Z,5.60
2017-08-27T09:27:32.025Z,7.10
2017-08-27T09:29:59.629Z,7.17
2017-08-27T09:32:27.194Z,9.97
2017-08-27T09:34:54.878Z,9.33
2017-08-27T09:37:22.587Z,10.03
2017-08-27T09:39:50.154Z,9.97
2017-08-27T09:42:17.734Z,8.73
2017-08-27T09:44:45.319Z,9.10
2017-08-27T09:47:13.017Z,11.93
2017-08-27T09:49:40.543Z,7.10
2017-08-27T09:52:08.154Z,4.50
2017-08-27T09:54:35.751Z,5.03
2017-08-27T09:57:03.315Z,4.07
2017-08-27T09:59:30.886Z,5.03
2017-08-27T10:01:59.413Z,7.10
2017-08-27T10:04:27.121Z,6.40
2017-08-27T10:06:55.537Z,5.57
2017-08-27T10:09:23.120Z,5.57
2017-08-27T10:11:50.734Z,7.80
2017-08-27T10:14:18.313Z,6.80
2017-08-27T10:16:46.682Z,7.77
2017-08-27T10:19:15.028Z,6.50
2017-08-27T10:21:42.638Z,7.17
2017-08-27T10:24:10.246Z,6.97
2017-08-27T10:26:37.813Z,7.10
2017-08-27T10:29:05.405Z,8.80
2017-08-27T10:31:32.986Z,5.73
2017-08-27T10:34:00.617Z,5.27
2017-08-27T10:36:28.233Z,8.23
2017-08-27T10:38:56.781Z,5.30
2017-08-27T10:41:24.358Z,7.50
2017-08-27T10:43:51.958Z,8.00
2017-08-27T10:46:20.538Z,8.40
2017-08-27T10:48:48.647Z,6.67
2017-08-27T10:51:16.263Z,4.87
2017-08-27T10:53:43.862Z,7.17
2017-08-27T10:56:11.438Z,2.73
2017-08-27T10:58:39.780Z,2.67
2017-08-27T11:01:07.427Z,4.23
2017-08-27T11:03:35.029Z,3.53
2017-08-27T11:06:02.587Z,4.60
2017-08-27T11:08:30.150Z,3.40
2017-08-27T11:10:57.732Z,3.60
2017-08-27T11:13:25.280Z,4.53
2017-08-27T11:15:52.841Z,3.83
2017-08-27T11:18:20.423Z,5.10
2017-08-27T11:20:48.100Z,3.97
2017-08-27T11:23:15.704Z,3.10
2017-08-27T11:25:43.292Z,6.93
2017-08-27T11:28:10.865Z,3.73
2017-08-27T11:30:39.186Z,4.10
2017-08-27T11:33:06.782Z,3.20
2017-08-27T11:35:34.395Z,3.63
2017-08-27T11:38:01.986Z,3.83
2017-08-27T11:40:29.557Z,4.27
2017-08-27T11:42:57.152Z,3.93
2017-08-27T11:45:25.477Z,3.47
2017-08-27T11:47:53.045Z,4.37
2017-08-27T11:50:20.631Z,5.80
2017-08-27T11:52:48.210Z,4.53
2017-08-27T11:55:15.774Z,5.73
2017-08-27T11:57:43.370Z,4.40
2017-08-27T12:00:11.070Z,6.43
2017-08-27T12:02:38.648Z,3.30
2017-08-27T12:05:06.254Z,4.77
2017-08-27T12:07:34.090Z,5.10
2017-08-27T12:10:01.686Z,5.07
2017-08-27T12:12:29.288Z,6.30
2017-08-27T12:14:56.902Z,6.00
2017-08-27T12:17:24.497Z,5.63
2017-08-27T12:19:52.578Z,6.87
2017-08-27T12:22:20.217Z,7.13
2017-08-27T12:24:47.789Z,4.00
2017-08-27T12:27:15.453Z,4.07
2017-08-27T12:29:43.026Z,3.93
2017-08-27T12:32:10.743Z,3.57
2017-08-27T12:34:38.321Z,4.07
2017-08-27T12:37:05.869Z,5.00
2017-08-27T12:39:33.471Z,5.30
2017-08-27T12:42:01.054Z,5.43
2017-08-27T12:44:28.633Z,6.23
2017-08-27T12:46:56.426Z,7.13
2017-08-27T12:49:24.077Z,5.03
2017-08-27T12:51:51.723Z,5.23
2017-08-27T12:54:19.313Z,4.20
2017-08-27T12:56:47.002Z,5.50
2017-08-27T12:59:14.566Z,5.60
2017-08-27T13:01:42.129Z,3.40
2017-08-27T13:04:09.686Z,4.40
2017-08-27T13:06:37.272Z,5.20
2017-08-27T13:09:05.584Z,5.77
2017-08-27T13:11:33.158Z,4.13
2017-08-27T13:14:00.808Z,5.80
2017-08-27T13:16:28.369Z,4.10
2017-08-27T13:18:55.987Z,4.73
2017-08-27T13:21:23.562Z,3.83
2017-08-27T13:23:51.136Z,3.70
2017-08-27T13:26:18.697Z,6.13
2017-08-27T13:28:46.264Z,4.93
2017-08-27T13:31:13.853Z,4.93
2017-08-27T13:33:41.435Z,4.37
2017-08-27T13:36:09.017Z,5.30
2017-08-27T13:38:36.635Z,5.33
2017-08-27T13:41:04.236Z,4.83
2017-08-27T13:43:31.822Z,5.50
2017-08-27T13:45:59.378Z,5.00
2017-08-27T13:48:26.974Z,7.27
2017-08-27T13:50:54.569Z,4.27
2017-08-27T13:53:22.172Z,3.90
2017-08-27T13:55:49.714Z,4.27
2017-08-27T13:58:17.478Z,4.17
2017-08-27T14:00:45.849Z,5.97
2017-08-27T14:03:13.444Z,5.27
2017-08-27T14:05:41.017Z,5.27
2017-08-27T14:08:08.719Z,5.47
2017-08-27T14:10:36.317Z,7.00
2017-08-27T14:13:03.914Z,4.43
2017-08-27T14:15:31.489Z,3.93
2017-08-27T14:17:59.290Z,4.20
2017-08-27T14:20:27.627Z,5.40
2017-08-27T14:22:55.183Z,4.43
2017-08-27T14:25:22.753Z,4.30
2017-08-27T14:27:50.379Z,5.57
2017-08-27T14:30:17.942Z,4.47
2017-08-27T14:32:45.517Z,6.37
2017-08-27T14:35:13.106Z,5.27
2017-08-27T14:37:40.681Z,3.53
2017-08-27T14:40:08.253Z,4.03
2017-08-27T14:42:35.819Z,6.03
2017-08-27T14:45:03.411Z,4.37
2017-08-27T14:47:30.969Z,5.60
2017-08-27T14:49:58.574Z,9.10
2017-08-27T14:52:26.290Z,8.60
2017-08-27T14:54:53.865Z,4.10
2017-08-27T14:57:21.437Z,8.30
2017-08-27T14:59:49.051Z,4.87
2017-08-27T15:02:16.646Z,6.80
2017-08-27T15:04:44.257Z,3.93
2017-08-27T15:07:11.854Z,4.80
2017-08-27T15:09:39.419Z,4.97
2017-08-27T15:12:06.994Z,4.63
2017-08-27T15:14:34.652Z,3.80
2017-08-27T15:17:02.241Z,6.03
2017-08-27T15:19:29.823Z,4.63
2017-08-27T15:21:57.679Z,4.60
2017-08-27T15:24:25.235Z,6.30
2017-08-27T15:26:52.837Z,9.90
2017-08-27T15:29:21.184Z,7.30
2017-08-27T15:31:48.782Z,4.23
2017-08-27T15:34:17.123Z,4.83
2017-08-27T15:36:44.745Z,3.80
2017-08-27T15:39:12.314Z,4.50
2017-08-27T15:41:39.874Z,4.63
2017-08-27T15:44:07.466Z,5.17
2017-08-27T15:46:35.029Z,9.17
2017-08-27T15:49:02.638Z,4.40
2017-08-27T15:51:30.957Z,3.47
2017-08-27T15:53:58.551Z,4.27
2017-08-27T15:56:26.274Z,3.60
2017-08-27T15:58:53.823Z,5.67
2017-08-27T16:01:21.412Z,4.60
2017-08-27T16:03:49.223Z,4.93
2017-08-27T16:06:16.806Z,6.73
2017-08-27T16:08:44.470Z,11.70
2017-08-27T16:11:12.018Z,5.80
2017-08-27T16:13:39.595Z,4.57
2017-08-27T16:16:07.420Z,7.57
2017-08-27T16:18:34.970Z,9.87
2017-08-27T16:21:02.627Z,6.97
2017-08-27T16:23:30.209Z,11.80
2017-08-27T16:25:58.562Z,4.07
2017-08-27T16:28:26.127Z,3.93
2017-08-27T16:30:53.915Z,8.20
2017-08-27T16:33:21.462Z,7.70
2017-08-27T16:35:49.033Z,3.70
2017-08-27T16:38:16.614Z,5.60
2017-08-27T16:40:44.157Z,3.53
2017-08-27T16:43:11.750Z,4.13
2017-08-27T16:45:39.303Z,4.50
2017-08-27T16:48:06.862Z,4.10
2017-08-27T16:50:34.709Z,7.50
2017-08-27T16:53:02.290Z,4.73
2017-08-27T16:55:29.868Z,4.67
2017-08-27T16:57:58.033Z,4.20
2017-08-27T17:00:25.660Z,4.30
2017-08-27T17:02:53.274Z,4.10
2017-08-27T17:05:20.883Z,3.30
2017-08-27T17:07:48.799Z,6.10
2017-08-27T17:10:16.354Z,4.10
2017-08-27T17:12:43.966Z,3.40
2017-08-27T17:15:11.610Z,4.57
2017-08-27T17:17:39.195Z,3.33
2017-08-27T17:20:06.873Z,3.90
2017-08-27T17:22:34.442Z,3.97
2017-08-27T17:25:02.026Z,6.00
2017-08-27T17:27:29.622Z,5.60
2017-08-27T17:29:57.198Z,6.60
2017-08-27T17:32:24.775Z,3.00
2017-08-27T17:34:53.149Z,2.93
2017-08-27T17:37:20.802Z,4.43
2017-08-27T17:39:48.395Z,4.50
2017-08-27T17:42:15.922Z,5.70
2017-08-27T17:44:43.524Z,4.10
2017-08-27T17:47:11.103Z,4.03
2017-08-27T17:49:38.696Z,3.90
2017-08-27T17:52:06.328Z,4.00
2017-08-27T17:54:33.917Z,5.00
2017-08-27T17:57:01.516Z,5.00
2017-08-27T17:59:29.083Z,4.20
2017-08-27T18:01:56.646Z,3.80
2017-08-27T18:04:24.230Z,4.57
2017-08-27T18:06:51.792Z,3.50
2017-08-27T18:09:20.139Z,3.67
2017-08-27T18:11:47.719Z,3.40
2017-08-27T18:14:15.292Z,6.53
2017-08-27T18:16:42.867Z,4.10
2017-08-27T18:19:10.450Z,3.57
2017-08-27T18:21:38.049Z,2.80
2017-08-27T18:24:05.630Z,3.50
2017-08-27T18:26:33.222Z,3.47
2017-08-27T18:29:00.820Z,7.90
2017-08-27T18:31:29.177Z,6.23
2017-08-27T18:33:56.790Z,4.70
2017-08-27T18:36:24.366Z,5.63
2017-08-27T18:38:51.977Z,5.27
2017-08-27T18:41:19.562Z,4.43
2017-08-27T18:43:47.163Z,4.80
2017-08-27T18:46:14.737Z,4.63
2017-08-27T18:48:42.365Z,5.77
2017-08-27T18:51:09.933Z,5.37
2017-08-27T18:53:37.519Z,4.30
2017-08-27T18:56:05.117Z,4.30
2017-08-27T18:58:32.705Z,5.77
2017-08-27T19:01:00.298Z,6.20
2017-08-27T19:03:27.911Z,5.70
2017-08-27T19:05:55.457Z,5.67
2017-08-27T19:08:23.050Z,4.50
2017-08-27T19:10:50.635Z,7.17
2017-08-27T19:13:18.191Z,6.70
2017-08-27T19:15:45.858Z,7.20
2017-08-27T19:18:13.447Z,7.60
2017-08-27T19:20:41.007Z,8.30
2017-08-27T19:23:09.605Z,8.47
2017-08-27T19:25:37.588Z,9.33
2017-08-27T19:28:05.625Z,5.70
2017-08-27T19:30:33.609Z,6.47
2017-08-27T19:33:01.191Z,9.37
2017-08-27T19:35:28.811Z,7.60
2017-08-27T19:37:56.420Z,8.07
2017-08-27T19:40:24.019Z,6.80
2017-08-27T19:42:51.610Z,5.27
2017-08-27T19:45:19.220Z,9.93
2017-08-27T19:47:46.814Z,7.27
2017-08-27T19:50:14.378Z,9.67
2017-08-27T19:52:41.965Z,5.30
2017-08-27T19:55:09.535Z,5.63
2017-08-27T19:57:37.383Z,6.83
2017-08-27T20:00:04.975Z,4.70
2017-08-27T20:02:32.563Z,7.37
2017-08-27T20:05:00.217Z,5.90
2017-08-27T20:07:27.810Z,7.43
2017-08-27T20:09:55.403Z,9.27
2017-08-27T20:12:23.059Z,6.10
2017-08-27T20:14:50.645Z,7.40
2017-08-27T20:17:18.228Z,9.37
2017-08-27T20:19:45.806Z,7.70
2017-08-27T20:22:13.405Z,11.10
2017-08-27T20:24:40.964Z,5.50
2017-08-27T20:27:08.643Z,8.50
2017-08-27T20:29:36.990Z,6.77
2017-08-27T20:32:04.613Z,8.33
2017-08-27T20:34:32.246Z,7.27
2017-08-27T20:37:00.593Z,14.30
2017-08-27T20:39:28.194Z,8.77
2017-08-27T20:41:56.572Z,10.93
2017-08-27T20:44:24.173Z,8.67
2017-08-27T20:46:51.825Z,10.43
2017-08-27T20:49:19.370Z,9.93
2017-08-27T20:51:47.004Z,8.77
2017-08-27T20:54:14.561Z,7.73
2017-08-27T20:56:42.160Z,10.07
2017-08-27T20:59:09.732Z,10.73
2017-08-27T21:01:37.310Z,8.83
2017-08-27T21:04:04.862Z,7.10
2017-08-27T21:06:32.484Z,7.10
2017-08-27T21:09:00.082Z,7.97
2017-08-27T21:11:27.642Z,6.70
2017-08-27T21:13:55.235Z,7.10
2017-08-27T21:16:22.818Z,7.70
2017-08-27T21:18:50.381Z,10.20
2017-08-27T21:21:17.967Z,8.13
2017-08-27T21:23:45.555Z,7.23
2017-08-27T21:26:13.153Z,7.03
2017-08-27T21:28:40.762Z,5.37
2017-08-27T21:31:08.382Z,7.70
2017-08-27T21:33:35.979Z,5.53
2017-08-27T21:36:03.566Z,7.80
2017-08-27T21:38:31.143Z,6.70
2017-08-27T21:40:58.709Z,5.63
2017-08-27T21:43:26.305Z,6.60
2017-08-27T21:45:53.899Z,5.00
2017-08-27T21:48:21.464Z,6.30
2017-08-27T21:50:49.206Z,6.33
2017-08-27T21:53:16.879Z,7.00
2017-08-27T21:55:44.490Z,6.13
2017-08-27T21:58:12.085Z,6.53
2017-08-27T22:00:39.680Z,6.37
2017-08-27T22:03:07.271Z,4.87
2017-08-27T22:05:34.982Z,6.80
2017-08-27T22:08:02.578Z,9.40
2017-08-27T22:10:30.158Z,6.00
2017-08-27T22:12:57.726Z,6.30
2017-08-27T22:15:25.294Z,6.43
2017-08-27T22:17:52.879Z,6.40
2017-08-27T22:20:20.465Z,9.03
2017-08-27T22:22:48.129Z,8.23
2017-08-27T22:25:15.771Z,6.87
2017-08-27T22:27:43.326Z,7.30
2017-08-27T22:30:10.901Z,6.33
2017-08-27T22:32:38.582Z,6.90
2017-08-27T22:35:06.155Z,6.37
2017-08-27T22:37:33.783Z,9.37
2017-08-27T22:40:01.366Z,10.00
2017-08-27T22:42:28.977Z,7.13
2017-08-27T22:44:56.563Z,8.03
2017-08-27T22:47:24.130Z,9.23
2017-08-27T22:49:51.729Z,9.23
2017-08-27T22:52:19.291Z,9.10
2017-08-27T22:54:46.955Z,9.07
2017-08-27T22:57:14.547Z,8.17
2017-08-27T22:59:42.110Z,10.23
2017-08-27T23:02:09.668Z,10.10
2017-08-27T23:04:38.003Z,10.30
2017-08-27T23:07:05.566Z,8.33
2017-08-27T23:09:33.417Z,12.07
2017-08-27T23:12:01.018Z,9.23
2017-08-27T23:14:28.622Z,8.40
2017-08-27T23:16:56.170Z,9.53
2017-08-27T23:19:23.743Z,8.97
2017-08-27T23:21:51.349Z,9.10
2017-08-27T23:24:18.946Z,6.70
2017-08-27T23:26:47.289Z,8.60
2017-08-27T23:29:14.958Z,9.47
2017-08-27T23:31:42.537Z,10.10
2017-08-27T23:34:10.872Z,8.37
2017-08-27T23:36:38.601Z,7.20
2017-08-27T23:39:06.212Z,14.17
2017-08-27T23:41:33.766Z,10.00
2017-08-27T23:44:01.437Z,7.87
2017-08-27T23:46:28.997Z,8.63
2017-08-27T23:48:56.603Z,8.77
2017-08-27T23:51:24.187Z,10.63
2017-08-27T23:53:51.786Z,14.93
2017-08-27T23:56:19.365Z,9.33
2017-08-27T23:58:46.959Z,8.07
